Raymond, Canada
Current Conditions -  °F | °C
As of 11:00 AM on Friday 19 Dec 2014 (Local Time) from CYQL Reporting Station
Broken Clouds Broken Clouds  
Wind Chill: 28°   Ceiling: 15000
Heat Index: 37°   Visibility: 40mi
Dew Point: 30°   Wind: 16mph
Humidity: 75%   Direction: 230°SW
Pressure: 29.72"   Gusts: NA
Location:  49.47°N, 112.66°W
Report Text: CYQL 191800Z 23014KT 40SM FEW060 BKN150 BKN250 03/M01 A2972 RMK SC1AC5CI2 SC TR SLP099
Loading
Personal Weather Stations






























Interactive Weather Map New forecast layout! Learn more

10-Day Weather Forecast

Advertisements
Track Severe Weather on mobile